sensor_id;sensor_type;location;lat;lon;timestamp;temperature;humidity
10536;DHT22;5316;49.538;8.352;2023-03-12T03:45:32;2.10;99.90
10536;DHT22;5316;49.538;8.352;2023-03-12T03:48:00;2.10;99.90
10536;DHT22;5316;49.538;8.352;2023-03-12T03:50:30;2.00;1.00
10536;DHT22;5316;49.538;8.352;2023-03-12T03:52:57;2.00;1.00
10536;DHT22;5316;49.538;8.352;2023-03-12T03:55:24;2.00;1.00
10536;DHT22;5316;49.538;8.352;2023-03-12T03:57:51;2.20;1.00
10536;DHT22;5316;49.538;8.352;2023-03-12T04:00:20;2.10;1.00
10536;DHT22;5316;49.538;8.352;2023-03-12T04:02:48;2.10;1.00
10536;DHT22;5316;49.538;8.352;2023-03-12T04:05:16;2.20;1.00
10536;DHT22;5316;49.538;8.352;2023-03-12T04:07:44;2.20;1.00
10536;DHT22;5316;49.538;8.352;2023-03-12T04:10:11;2.20;1.00
10536;DHT22;5316;49.538;8.352;2023-03-12T04:12:38;2.20;1.00
10536;DHT22;5316;49.538;8.352;2023-03-12T04:15:08;2.20;1.00
10536;DHT22;5316;49.538;8.352;2023-03-12T04:17:34;2.30;1.00
10536;DHT22;5316;49.538;8.352;2023-03-12T04:20:03;2.40;99.90
10536;DHT22;5316;49.538;8.352;2023-03-12T04:22:33;2.40;99.90
10536;DHT22;5316;49.538;8.352;2023-03-12T04:25:00;2.40;1.00
10536;DHT22;5316;49.538;8.352;2023-03-12T04:27:27;2.40;1.00
10536;DHT22;5316;49.538;8.352;2023-03-12T04:29:54;2.50;1.00
10536;DHT22;5316;49.538;8.352;2023-03-12T04:32:21;2.50;1.00
10536;DHT22;5316;49.538;8.352;2023-03-12T04:34:47;2.50;1.00
10536;DHT22;5316;49.538;8.352;2023-03-12T04:37:16;2.50;94.30
10536;DHT22;5316;49.538;8.352;2023-03-12T04:39:43;2.30;1.00
10536;DHT22;5316;49.538;8.352;2023-03-12T04:42:11;2.20;99.90
10536;DHT22;5316;49.538;8.352;2023-03-12T04:44:38;2.20;99.90
10536;DHT22;5316;49.538;8.352;2023-03-12T04:47:06;2.10;1.00
10536;DHT22;5316;49.538;8.352;2023-03-12T04:49:34;2.10;1.00
10536;DHT22;5316;49.538;8.352;2023-03-12T04:52:06;2.10;1.00
10536;DHT22;5316;49.538;8.352;2023-03-12T04:54:35;2.00;1.00
10536;DHT22;5316;49.538;8.352;2023-03-12T04:57:02;2.00;1.00
10536;DHT22;5316;49.538;8.352;2023-03-12T04:59:29;2.00;1.00
10536;DHT22;5316;49.538;8.352;2023-03-12T05:01:56;2.00;1.00
10536;DHT22;5316;49.538;8.352;2023-03-12T05:04:23;2.00;1.00
10536;DHT22;5316;49.538;8.352;2023-03-12T05:06:50;2.00;1.00
10536;DHT22;5316;49.538;8.352;2023-03-12T05:09:16;2.00;99.90
10536;DHT22;5316;49.538;8.352;2023-03-12T05:11:45;2.00;99.90
10536;DHT22;5316;49.538;8.352;2023-03-12T05:14:12;1.80;1.00
10536;DHT22;5316;49.538;8.352;2023-03-12T05:16:39;1.80;1.00
10536;DHT22;5316;49.538;8.352;2023-03-12T05:19:06;1.70;1.00
10536;DHT22;5316;49.538;8.352;2023-03-12T05:21:33;1.60;1.00
10536;DHT22;5316;49.538;8.352;2023-03-12T05:24:00;1.60;1.00
10536;DHT22;5316;49.538;8.352;2023-03-12T05:26:28;1.60;1.00
10536;DHT22;5316;49.538;8.352;2023-03-12T05:28:58;1.60;1.00
10536;DHT22;5316;49.538;8.352;2023-03-12T05:31:26;1.60;49.70
10536;DHT22;5316;49.538;8.352;2023-03-12T05:33:58;1.60;91.40
10536;DHT22;5316;49.538;8.352;2023-03-12T05:36:25;1.60;96.10
10536;DHT22;5316;49.538;8.352;2023-03-12T05:38:52;1.60;99.90
10536;DHT22;5316;49.538;8.352;2023-03-12T05:41:21;1.60;99.90
10536;DHT22;5316;49.538;8.352;2023-03-12T05:43:50;1.60;99.90
10536;DHT22;5316;49.538;8.352;2023-03-12T05:46:19;1.50;99.90
10536;DHT22;5316;49.538;8.352;2023-03-12T05:48:45;1.60;99.90
10536;DHT22;5316;49.538;8.352;2023-03-12T05:51:12;1.60;99.90
10536;DHT22;5316;49.538;8.352;2023-03-12T05:53:39;1.50;99.90
10536;DHT22;5316;49.538;8.352;2023-03-12T05:56:09;1.50;99.90
10536;DHT22;5316;49.538;8.352;2023-03-12T05:58:36;1.60;99.90
10536;DHT22;5316;49.538;8.352;2023-03-12T06:01:11;1.60;99.90
10536;DHT22;5316;49.538;8.352;2023-03-12T06:03:39;1.60;99.90
10536;DHT22;5316;49.538;8.352;2023-03-12T06:06:10;1.60;99.90
10536;DHT22;5316;49.538;8.352;2023-03-12T06:08:40;1.60;99.90
10536;DHT22;5316;49.538;8.352;2023-03-12T06:11:07;1.60;99.90
10536;DHT22;5316;49.538;8.352;2023-03-12T06:13:35;1.70;99.90
10536;DHT22;5316;49.538;8.352;2023-03-12T06:16:03;1.70;99.90
10536;DHT22;5316;49.538;8.352;2023-03-12T06:18:30;1.70;99.90
10536;DHT22;5316;49.538;8.352;2023-03-12T06:21:12;1.70;99.90
10536;DHT22;5316;49.538;8.352;2023-03-12T06:23:42;1.70;99.90
10536;DHT22;5316;49.538;8.352;2023-03-12T06:26:10;1.70;99.90
10536;DHT22;5316;49.538;8.352;2023-03-12T06:28:37;1.80;99.90
10536;DHT22;5316;49.538;8.352;2023-03-12T06:31:08;1.80;99.90
10536;DHT22;5316;49.538;8.352;2023-03-12T06:33:35;1.90;99.90
10536;DHT22;5316;49.538;8.352;2023-03-12T06:36:04;1.90;99.90
10536;DHT22;5316;49.538;8.352;2023-03-12T06:41:46;2.00;99.90
10536;DHT22;5316;49.538;8.352;2023-03-12T06:44:13;2.00;99.90
10536;DHT22;5316;49.538;8.352;2023-03-12T06:46:41;2.10;99.90
10536;DHT22;5316;49.538;8.352;2023-03-12T06:49:09;2.10;99.90
10536;DHT22;5316;49.538;8.352;2023-03-12T06:51:36;2.10;99.90
10536;DHT22;5316;49.538;8.352;2023-03-12T06:54:03;2.20;99.90
10536;DHT22;5316;49.538;8.352;2023-03-12T06:56:30;2.20;99.90
10536;DHT22;5316;49.538;8.352;2023-03-12T06:59:00;2.30;99.90
10536;DHT22;5316;49.538;8.352;2023-03-12T07:01:29;2.20;99.90
10536;DHT22;5316;49.538;8.352;2023-03-12T07:03:56;2.30;99.90
10536;DHT22;5316;49.538;8.352;2023-03-12T07:06:27;2.30;99.90
10536;DHT22;5316;49.538;8.352;2023-03-12T07:08:54;2.40;99.90
10536;DHT22;5316;49.538;8.352;2023-03-12T07:11:21;2.40;99.90
10536;DHT22;5316;49.538;8.352;2023-03-12T07:13:48;2.40;99.90
10536;DHT22;5316;49.538;8.352;2023-03-12T07:16:19;2.50;99.90
10536;DHT22;5316;49.538;8.352;2023-03-12T07:18:46;2.50;99.90
10536;DHT22;5316;49.538;8.352;2023-03-12T07:21:24;2.50;99.90
10536;DHT22;5316;49.538;8.352;2023-03-12T07:23:52;2.50;99.90
10536;DHT22;5316;49.538;8.352;2023-03-12T07:26:19;2.50;99.90
10536;DHT22;5316;49.538;8.352;2023-03-12T07:28:46;2.50;99.90
10536;DHT22;5316;49.538;8.352;2023-03-12T07:31:16;2.50;99.90
10536;DHT22;5316;49.538;8.352;2023-03-12T07:33:46;2.50;99.90
10536;DHT22;5316;49.538;8.352;2023-03-12T07:36:14;2.50;99.90
10536;DHT22;5316;49.538;8.352;2023-03-12T07:38:50;2.50;99.90
10536;DHT22;5316;49.538;8.352;2023-03-12T07:41:19;2.50;99.90
10536;DHT22;5316;49.538;8.352;2023-03-12T07:43:46;2.60;99.90
10536;DHT22;5316;49.538;8.352;2023-03-12T07:46:13;2.50;99.90
10536;DHT22;5316;49.538;8.352;2023-03-12T07:48:41;2.50;99.90
10536;DHT22;5316;49.538;8.352;2023-03-12T07:51:08;2.50;99.90
10536;DHT22;5316;49.538;8.352;2023-03-12T07:53:35;2.50;99.90
10536;DHT22;5316;49.538;8.352;2023-03-12T07:56:03;2.50;99.90
10536;DHT22;5316;49.538;8.352;2023-03-12T07:58:30;2.60;99.90
10536;DHT22;5316;49.538;8.352;2023-03-12T08:00:58;2.60;99.90
10536;DHT22;5316;49.538;8.352;2023-03-12T08:03:26;2.60;72.40
10536;DHT22;5316;49.538;8.352;2023-03-12T08:06:01;2.70;49.40
10536;DHT22;5316;49.538;8.352;2023-03-12T08:08:30;2.60;48.10
10536;DHT22;5316;49.538;8.352;2023-03-12T08:10:59;2.70;49.10
10536;DHT22;5316;49.538;8.352;2023-03-12T08:13:26;2.70;41.50
10536;DHT22;5316;49.538;8.352;2023-03-12T08:15:53;2.70;56.00
10536;DHT22;5316;49.538;8.352;2023-03-12T08:18:21;2.70;70.00
10536;DHT22;5316;49.538;8.352;2023-03-12T08:20:50;2.80;76.30
10536;DHT22;5316;49.538;8.352;2023-03-12T08:23:20;2.80;96.40
10536;DHT22;5316;49.538;8.352;2023-03-12T08:25:48;2.90;95.40
10536;DHT22;5316;49.538;8.352;2023-03-12T08:28:27;3.00;95.30
10536;DHT22;5316;49.538;8.352;2023-03-12T08:30:57;3.10;89.60
10536;DHT22;5316;49.538;8.352;2023-03-12T08:33:24;3.10;75.70
10536;DHT22;5316;49.538;8.352;2023-03-12T08:35:51;3.10;51.40
10536;DHT22;5316;49.538;8.352;2023-03-12T08:38:45;3.20;55.50
10536;DHT22;5316;49.538;8.352;2023-03-12T08:41:14;3.20;40.30
10536;DHT22;5316;49.538;8.352;2023-03-12T08:43:43;3.30;34.00
10536;DHT22;5316;49.538;8.352;2023-03-12T08:46:11;3.40;27.10
10536;DHT22;5316;49.538;8.352;2023-03-12T08:48:38;3.40;4.00
10536;DHT22;5316;49.538;8.352;2023-03-12T08:51:09;3.40;17.50
10536;DHT22;5316;49.538;8.352;2023-03-12T08:53:49;3.50;24.30
10536;DHT22;5316;49.538;8.352;2023-03-12T08:56:17;3.60;26.50
10536;DHT22;5316;49.538;8.352;2023-03-12T08:58:44;3.70;44.50
10536;DHT22;5316;49.538;8.352;2023-03-12T09:01:12;3.80;36.90
10536;DHT22;5316;49.538;8.352;2023-03-12T09:03:39;3.80;16.40
10536;DHT22;5316;49.538;8.352;2023-03-12T09:06:08;3.80;25.50
10536;DHT22;5316;49.538;8.352;2023-03-12T09:08:39;3.90;16.10
10536;DHT22;5316;49.538;8.352;2023-03-12T09:11:07;4.00;11.00
10536;DHT22;5316;49.538;8.352;2023-03-12T09:13:36;4.10;6.10
10536;DHT22;5316;49.538;8.352;2023-03-12T09:16:04;4.20;1.00
10536;DHT22;5316;49.538;8.352;2023-03-12T09:18:35;4.30;1.00
10536;DHT22;5316;49.538;8.352;2023-03-12T09:21:02;4.40;1.00
10536;DHT22;5316;49.538;8.352;2023-03-12T09:23:35;4.50;1.00
10536;DHT22;5316;49.538;8.352;2023-03-12T09:26:07;4.50;1.00
10536;DHT22;5316;49.538;8.352;2023-03-12T09:28:35;4.60;1.00
10536;DHT22;5316;49.538;8.352;2023-03-12T09:31:02;4.60;1.00
10536;DHT22;5316;49.538;8.352;2023-03-12T09:33:31;4.70;1.00
10536;DHT22;5316;49.538;8.352;2023-03-12T09:36:05;4.70;1.00
10536;DHT22;5316;49.538;8.352;2023-03-12T09:38:33;4.80;1.00
10536;DHT22;5316;49.538;8.352;2023-03-12T09:41:10;4.90;1.00
10536;DHT22;5316;49.538;8.352;2023-03-12T09:43:46;4.90;1.00
10536;DHT22;5316;49.538;8.352;2023-03-12T09:46:21;5.00;1.00
10536;DHT22;5316;49.538;8.352;2023-03-12T09:49:03;5.10;1.00
10536;DHT22;5316;49.538;8.352;2023-03-12T09:51:34;5.20;1.00
10536;DHT22;5316;49.538;8.352;2023-03-12T09:54:06;5.20;1.00
10536;DHT22;5316;49.538;8.352;2023-03-12T09:56:42;5.20;1.00
10536;DHT22;5316;49.538;8.352;2023-03-12T09:59:10;5.30;1.00
10536;DHT22;5316;49.538;8.352;2023-03-12T10:01:42;5.30;1.00
10536;DHT22;5316;49.538;8.352;2023-03-12T10:04:35;5.20;1.00
10536;DHT22;5316;49.538;8.352;2023-03-12T10:07:13;5.30;1.00
10536;DHT22;5316;49.538;8.352;2023-03-12T10:10:05;5.30;1.00
10536;DHT22;5316;49.538;8.352;2023-03-12T10:12:52;5.30;1.00
10536;DHT22;5316;49.538;8.352;2023-03-12T10:15:40;5.40;32.30
10536;DHT22;5316;49.538;8.352;2023-03-12T10:18:19;5.60;63.30
10536;DHT22;5316;49.538;8.352;2023-03-12T10:21:09;5.80;19.80
10536;DHT22;5316;49.538;8.352;2023-03-12T10:23:56;6.10;19.40
10536;DHT22;5316;49.538;8.352;2023-03-12T10:26:36;6.30;1.00
10536;DHT22;5316;49.538;8.352;2023-03-12T10:29:12;6.60;1.00
10536;DHT22;5316;49.538;8.352;2023-03-12T10:31:49;6.80;1.00
10536;DHT22;5316;49.538;8.352;2023-03-12T10:34:30;6.80;1.00
10536;DHT22;5316;49.538;8.352;2023-03-12T10:37:05;6.80;1.00
10536;DHT22;5316;49.538;8.352;2023-03-12T10:39:39;6.70;1.00
10536;DHT22;5316;49.538;8.352;2023-03-12T10:42:15;6.60;1.00
10536;DHT22;5316;49.538;8.352;2023-03-12T10:44:55;6.60;1.00
10536;DHT22;5316;49.538;8.352;2023-03-12T10:47:29;6.50;1.00
10536;DHT22;5316;49.538;8.352;2023-03-12T10:50:12;6.60;1.00
10536;DHT22;5316;49.538;8.352;2023-03-12T10:52:39;6.50;1.00
10536;DHT22;5316;49.538;8.352;2023-03-12T10:55:11;6.60;1.00
10536;DHT22;5316;49.538;8.352;2023-03-12T10:57:40;6.70;1.00
10536;DHT22;5316;49.538;8.352;2023-03-12T11:00:17;6.70;1.00
10536;DHT22;5316;49.538;8.352;2023-03-12T11:02:55;6.80;1.00
10536;DHT22;5316;49.538;8.352;2023-03-12T11:05:25;6.80;1.00
10536;DHT22;5316;49.538;8.352;2023-03-12T11:07:52;6.80;1.00
10536;DHT22;5316;49.538;8.352;2023-03-12T11:14:49;6.90;1.00
10536;DHT22;5316;49.538;8.352;2023-03-12T11:17:19;7.00;1.00
10536;DHT22;5316;49.538;8.352;2023-03-12T11:19:48;7.00;1.00
10536;DHT22;5316;49.538;8.352;2023-03-12T11:22:27;7.10;1.00
10536;DHT22;5316;49.538;8.352;2023-03-12T11:24:56;7.20;1.00
10536;DHT22;5316;49.538;8.352;2023-03-12T11:27:34;7.30;1.00
10536;DHT22;5316;49.538;8.352;2023-03-12T11:30:04;7.40;1.00
10536;DHT22;5316;49.538;8.352;2023-03-12T11:32:35;7.60;1.00
10536;DHT22;5316;49.538;8.352;2023-03-12T11:35:09;7.80;1.00
10536;DHT22;5316;49.538;8.352;2023-03-12T11:41:37;8.30;1.00
10536;DHT22;5316;49.538;8.352;2023-03-12T11:45:25;8.50;1.00
10536;DHT22;5316;49.538;8.352;2023-03-12T11:47:55;8.70;1.00
10536;DHT22;5316;49.538;8.352;2023-03-12T11:50:58;8.90;1.00
10536;DHT22;5316;49.538;8.352;2023-03-12T11:54:09;9.00;1.00
10536;DHT22;5316;49.538;8.352;2023-03-12T11:56:45;9.20;1.00
10536;DHT22;5316;49.538;8.352;2023-03-12T11:59:48;9.40;1.00
10536;DHT22;5316;49.538;8.352;2023-03-12T12:03:22;9.60;1.00
10536;DHT22;5316;49.538;8.352;2023-03-12T12:09:17;10.20;1.00
10536;DHT22;5316;49.538;8.352;2023-03-12T12:12:23;10.20;1.00
10536;DHT22;5316;49.538;8.352;2023-03-12T12:15:17;10.30;1.00
10536;DHT22;5316;49.538;8.352;2023-03-12T12:18:19;10.40;1.00
10536;DHT22;5316;49.538;8.352;2023-03-12T12:21:03;10.40;1.00
10536;DHT22;5316;49.538;8.352;2023-03-12T12:24:02;10.60;1.00
10536;DHT22;5316;49.538;8.352;2023-03-12T13:49:16;13.70;1.00
10536;DHT22;5316;49.538;8.352;2023-03-12T13:51:53;13.80;99.90
10536;DHT22;5316;49.538;8.352;2023-03-12T13:54:29;13.80;99.90
10536;DHT22;5316;49.538;8.352;2023-03-12T13:57:03;13.90;74.80
10536;DHT22;5316;49.538;8.352;2023-03-12T13:59:50;14.10;99.90
10536;DHT22;5316;49.538;8.352;2023-03-12T14:02:24;14.20;1.00
10536;DHT22;5316;49.538;8.352;2023-03-12T14:05:02;14.20;99.90
10536;DHT22;5316;49.538;8.352;2023-03-12T14:13:54;14.10;99.90
10536;DHT22;5316;49.538;8.352;2023-03-12T14:22:11;13.80;1.00
10536;DHT22;5316;49.538;8.352;2023-03-12T14:24:50;13.60;1.00
10536;DHT22;5316;49.538;8.352;2023-03-12T14:27:25;13.40;32.00
10536;DHT22;5316;49.538;8.352;2023-03-12T14:30:14;13.30;99.90
10536;DHT22;5316;49.538;8.352;2023-03-12T14:32:51;13.10;99.90
10536;DHT22;5316;49.538;8.352;2023-03-12T14:35:36;13.00;1.00
10536;DHT22;5316;49.538;8.352;2023-03-12T14:38:16;13.00;1.00
10536;DHT22;5316;49.538;8.352;2023-03-12T14:40:50;13.00;80.00
10536;DHT22;5316;49.538;8.352;2023-03-12T14:43:35;13.00;99.90
10536;DHT22;5316;49.538;8.352;2023-03-12T14:46:19;12.90;88.10
10536;DHT22;5316;49.538;8.352;2023-03-12T14:48:52;12.90;99.90
10536;DHT22;5316;49.538;8.352;2023-03-12T14:51:22;12.90;99.90
10536;DHT22;5316;49.538;8.352;2023-03-12T14:54:02;13.00;99.90
10536;DHT22;5316;49.538;8.352;2023-03-12T14:56:33;13.10;99.90
10536;DHT22;5316;49.538;8.352;2023-03-12T14:59:18;13.10;99.90
10536;DHT22;5316;49.538;8.352;2023-03-12T15:01:53;13.10;99.90
10536;DHT22;5316;49.538;8.352;2023-03-12T15:04:26;13.20;1.00
10536;DHT22;5316;49.538;8.352;2023-03-12T15:06:56;13.10;99.90
10536;DHT22;5316;49.538;8.352;2023-03-12T15:09:42;13.20;99.90
10536;DHT22;5316;49.538;8.352;2023-03-12T15:12:19;13.10;99.90
10536;DHT22;5316;49.538;8.352;2023-03-12T15:14:50;13.10;99.90
10536;DHT22;5316;49.538;8.352;2023-03-12T15:17:29;13.00;1.00
10536;DHT22;5316;49.538;8.352;2023-03-12T15:20:25;13.00;99.90
10536;DHT22;5316;49.538;8.352;2023-03-12T15:22:59;13.10;1.00
10536;DHT22;5316;49.538;8.352;2023-03-12T15:25:31;13.10;99.90
10536;DHT22;5316;49.538;8.352;2023-03-12T15:28:06;13.00;99.90
10536;DHT22;5316;49.538;8.352;2023-03-12T15:30:35;13.00;99.90
10536;DHT22;5316;49.538;8.352;2023-03-12T15:33:11;13.10;99.90
10536;DHT22;5316;49.538;8.352;2023-03-12T15:35:59;13.10;99.90
10536;DHT22;5316;49.538;8.352;2023-03-12T15:38:27;13.10;99.90
10536;DHT22;5316;49.538;8.352;2023-03-12T15:41:00;13.10;99.90
10536;DHT22;5316;49.538;8.352;2023-03-12T15:43:31;13.20;1.00
10536;DHT22;5316;49.538;8.352;2023-03-12T15:46:00;13.10;1.00
10536;DHT22;5316;49.538;8.352;2023-03-12T15:48:29;13.10;30.60
10536;DHT22;5316;49.538;8.352;2023-03-12T15:50:57;13.10;99.90
10536;DHT22;5316;49.538;8.352;2023-03-12T15:53:27;13.10;99.90
10536;DHT22;5316;49.538;8.352;2023-03-12T15:56:02;13.00;17.00
10536;DHT22;5316;49.538;8.352;2023-03-12T15:58:32;13.20;1.00
10536;DHT22;5316;49.538;8.352;2023-03-12T16:01:08;13.00;1.00
10536;DHT22;5316;49.538;8.352;2023-03-12T16:03:37;13.00;99.90
10536;DHT22;5316;49.538;8.352;2023-03-12T16:06:04;12.90;1.00
10536;DHT22;5316;49.538;8.352;2023-03-12T16:08:37;12.90;1.00
10536;DHT22;5316;49.538;8.352;2023-03-12T16:11:18;12.90;99.90
10536;DHT22;5316;49.538;8.352;2023-03-12T16:14:02;12.80;99.90
10536;DHT22;5316;49.538;8.352;2023-03-12T16:16:34;12.80;99.90
10536;DHT22;5316;49.538;8.352;2023-03-12T16:19:01;12.70;1.00
10536;DHT22;5316;49.538;8.352;2023-03-12T16:21:30;12.60;1.00
10536;DHT22;5316;49.538;8.352;2023-03-12T16:24:00;12.60;1.00
10536;DHT22;5316;49.538;8.352;2023-03-12T16:26:29;12.60;1.00
10536;DHT22;5316;49.538;8.352;2023-03-12T16:28:58;12.60;1.00
10536;DHT22;5316;49.538;8.352;2023-03-12T16:31:27;12.60;98.40
10536;DHT22;5316;49.538;8.352;2023-03-12T16:33:54;12.60;51.80
10536;DHT22;5316;49.538;8.352;2023-03-12T16:36:22;12.50;99.90
10536;DHT22;5316;49.538;8.352;2023-03-12T16:38:50;12.50;99.90
10536;DHT22;5316;49.538;8.352;2023-03-12T16:41:20;12.50;45.70
10536;DHT22;5316;49.538;8.352;2023-03-12T16:44:05;12.40;1.00
10536;DHT22;5316;49.538;8.352;2023-03-12T16:46:33;12.50;1.00
10536;DHT22;5316;49.538;8.352;2023-03-12T16:49:00;12.50;1.00
10536;DHT22;5316;49.538;8.352;2023-03-12T16:51:28;12.50;1.00
10536;DHT22;5316;49.538;8.352;2023-03-12T16:53:55;12.50;1.00
10536;DHT22;5316;49.538;8.352;2023-03-12T16:56:24;12.50;1.00
10536;DHT22;5316;49.538;8.352;2023-03-12T16:58:54;12.50;1.00
10536;DHT22;5316;49.538;8.352;2023-03-12T17:01:23;12.50;1.00
10536;DHT22;5316;49.538;8.352;2023-03-12T17:03:55;12.40;1.00
10536;DHT22;5316;49.538;8.352;2023-03-12T17:06:23;12.40;1.00
10536;DHT22;5316;49.538;8.352;2023-03-12T17:08:52;12.30;1.00
10536;DHT22;5316;49.538;8.352;2023-03-12T17:11:22;12.30;1.00
10536;DHT22;5316;49.538;8.352;2023-03-12T17:14:02;12.30;1.00
10536;DHT22;5316;49.538;8.352;2023-03-12T17:16:37;12.30;1.00
10536;DHT22;5316;49.538;8.352;2023-03-12T17:19:04;12.30;1.00
10536;DHT22;5316;49.538;8.352;2023-03-12T17:21:31;12.20;1.00
10536;DHT22;5316;49.538;8.352;2023-03-12T17:23:59;12.20;7.60
10536;DHT22;5316;49.538;8.352;2023-03-12T17:26:44;12.10;54.30
10536;DHT22;5316;49.538;8.352;2023-03-12T17:29:15;12.10;96.70
